Time;durP1;ratioP1;P1;durP2;ratioP2;P2;SDS_P1;SDS_P2;PMS_P1;PMS_P2;Temp;Humidity;BMP_temperature;BMP_pressure;BME280_temperature;BME280_humidity;BME280_pressure;Samples;Min_cycle;Max_cycle;Signal;HPM_P1;HPM_P2
2022/06/28 00:02:24;;;;;;;1.45;1.35;;;;;;;;;;6272585;23;20149;-91
2022/06/28 00:04:51;;;;;;;1.17;1.17;;;;;;;;;;6256079;23;20188;-91
2022/06/28 00:07:19;;;;;;;1.27;1.27;;;;;;;;;;6245047;23;20172;-91
2022/06/28 00:09:46;;;;;;;1.48;1.38;;;;;;;;;;6244653;23;20227;-91
2022/06/28 00:12:16;;;;;;;1.23;1.13;;;;;;;;;;6244588;23;20239;-92
2022/06/28 00:17:29;;;;;;;2.00;1.48;;;;;;;;;;6244474;23;20246;-90
2022/06/28 00:19:57;;;;;;;1.30;1.20;;;;;;;;;;6243947;22;20283;-92
2022/06/28 00:22:24;;;;;;;1.30;1.20;;;;;;;;;;6244202;23;20173;-91
2022/06/28 00:24:51;;;;;;;1.25;1.15;;;;;;;;;;6244197;23;20211;-92
2022/06/28 00:27:20;;;;;;;1.30;1.20;;;;;;;;;;6244104;23;20250;-91
2022/06/28 00:29:50;;;;;;;1.70;1.13;;;;;;;;;;6244435;23;20208;-91
2022/06/28 00:32:18;;;;;;;1.20;1.20;;;;;;;;;;6245053;23;20173;-91
2022/06/28 00:34:47;;;;;;;1.33;1.23;;;;;;;;;;6243941;23;20168;-91
2022/06/28 00:37:14;;;;;;;1.02;1.02;;;;;;;;;;6243846;23;20175;-92
2022/06/28 00:39:44;;;;;;;1.00;1.00;;;;;;;;;;6244377;23;20192;-91
2022/06/28 00:42:11;;;;;;;1.48;1.23;;;;;;;;;;6244987;23;20173;-91
2022/06/28 00:44:42;;;;;;;1.05;1.02;;;;;;;;;;6245152;23;20184;-91
2022/06/28 00:47:09;;;;;;;1.40;1.30;;;;;;;;;;6243787;23;20164;-91
2022/06/28 00:49:40;;;;;;;1.35;1.25;;;;;;;;;;6244038;23;20193;-91
2022/06/28 00:52:08;;;;;;;1.17;1.15;;;;;;;;;;6244624;23;20165;-91
2022/06/28 00:54:35;;;;;;;1.30;1.20;;;;;;;;;;6244204;23;20234;-91
2022/06/28 00:57:03;;;;;;;1.20;1.20;;;;;;;;;;6243900;23;20227;-92
2022/06/28 00:59:30;;;;;;;1.30;1.17;;;;;;;;;;6243827;23;20567;-91
2022/06/28 01:01:59;;;;;;;1.27;1.20;;;;;;;;;;6244514;23;20223;-91
2022/06/28 01:04:27;;;;;;;1.35;1.10;;;;;;;;;;6243876;23;20185;-91
2022/06/28 01:06:55;;;;;;;1.63;1.00;;;;;;;;;;6244304;23;20172;-91
2022/06/28 01:09:22;;;;;;;0.82;0.82;;;;;;;;;;6245244;23;20193;-91
2022/06/28 01:11:50;;;;;;;1.00;1.00;;;;;;;;;;6246054;23;20192;-91
2022/06/28 01:14:17;;;;;;;1.10;1.00;;;;;;;;;;6245563;23;20180;-91
2022/06/28 01:16:44;;;;;;;1.35;1.10;;;;;;;;;;6245725;23;20177;-92
2022/06/28 01:19:18;;;;;;;1.77;1.00;;;;;;;;;;6245963;22;20196;-92
2022/06/28 01:21:47;;;;;;;1.25;0.93;;;;;;;;;;6246084;23;20173;-92
2022/06/28 01:24:16;;;;;;;0.93;0.93;;;;;;;;;;6245864;23;20230;-92
2022/06/28 01:26:45;;;;;;;0.80;0.80;;;;;;;;;;6245427;23;20184;-91
2022/06/28 01:29:13;;;;;;;1.00;1.00;;;;;;;;;;6245739;23;20193;-91
2022/06/28 01:31:43;;;;;;;0.98;0.90;;;;;;;;;;6245094;23;20196;-91
2022/06/28 01:34:11;;;;;;;1.00;1.00;;;;;;;;;;6244175;23;20173;-91
2022/06/28 01:36:45;;;;;;;0.82;0.82;;;;;;;;;;6243932;23;20172;-91
2022/06/28 01:39:12;;;;;;;0.93;0.90;;;;;;;;;;6244052;23;20188;-91
2022/06/28 01:41:43;;;;;;;0.85;0.85;;;;;;;;;;6245851;23;20218;-91
2022/06/28 01:44:11;;;;;;;1.00;1.00;;;;;;;;;;6244627;23;20165;-92
2022/06/28 01:46:40;;;;;;;1.05;0.95;;;;;;;;;;6245084;23;20173;-91
2022/06/28 01:49:08;;;;;;;0.80;0.80;;;;;;;;;;6245499;23;20246;-91
2022/06/28 01:51:36;;;;;;;0.95;0.95;;;;;;;;;;6245406;23;20219;-91
2022/06/28 01:54:03;;;;;;;0.93;0.90;;;;;;;;;;6245514;23;20248;-91
2022/06/28 01:56:37;;;;;;;1.10;0.90;;;;;;;;;;6245701;23;20169;-91
2022/06/28 01:59:08;;;;;;;0.90;0.90;;;;;;;;;;6245366;23;20188;-91
2022/06/28 02:01:36;;;;;;;0.80;0.80;;;;;;;;;;6246008;23;20161;-90
2022/06/28 02:04:18;;;;;;;1.23;0.90;;;;;;;;;;6245571;23;20178;-93
2022/06/28 02:06:45;;;;;;;0.90;0.90;;;;;;;;;;6245221;23;20234;-91
2022/06/28 02:09:12;;;;;;;0.80;0.80;;;;;;;;;;6245166;23;20268;-91
2022/06/28 02:11:40;;;;;;;0.75;0.75;;;;;;;;;;6245365;23;20176;-91
2022/06/28 02:14:09;;;;;;;1.02;1.02;;;;;;;;;;6245303;23;20172;-91
2022/06/28 02:16:36;;;;;;;0.75;0.75;;;;;;;;;;6244960;23;20171;-91
2022/06/28 02:19:04;;;;;;;1.10;1.00;;;;;;;;;;6246440;23;20200;-89
2022/06/28 02:21:35;;;;;;;0.82;0.80;;;;;;;;;;6245489;22;20180;-92
2022/06/28 02:24:03;;;;;;;1.05;1.05;;;;;;;;;;6245947;23;20165;-90
2022/06/28 02:26:32;;;;;;;1.10;0.85;;;;;;;;;;6245308;23;20207;-90
2022/06/28 02:29:03;;;;;;;1.25;0.90;;;;;;;;;;6246240;23;20203;-92
2022/06/28 02:31:32;;;;;;;1.10;1.00;;;;;;;;;;6245458;23;20183;-92
2022/06/28 02:34:00;;;;;;;0.80;0.80;;;;;;;;;;6245726;23;20224;-92
2022/06/28 02:41:53;;;;;;;0.80;0.80;;;;;;;;;;6243463;22;20199;-91
2022/06/28 02:44:20;;;;;;;1.52;0.95;;;;;;;;;;6245000;23;20230;-91
2022/06/28 02:46:52;;;;;;;2.85;0.93;;;;;;;;;;6244970;23;20173;-91
2022/06/28 02:49:23;;;;;;;1.40;1.00;;;;;;;;;;6244938;23;20199;-92
2022/06/28 02:51:50;;;;;;;0.90;0.90;;;;;;;;;;6245216;23;20252;-92
2022/06/28 02:54:17;;;;;;;1.95;1.23;;;;;;;;;;6244762;23;20226;-91
2022/06/28 02:56:45;;;;;;;1.00;1.00;;;;;;;;;;6244733;23;20172;-91
2022/06/28 02:59:15;;;;;;;0.90;0.90;;;;;;;;;;6245385;23;20193;-92
2022/06/28 03:01:42;;;;;;;0.80;0.80;;;;;;;;;;6244717;23;20230;-91
2022/06/28 03:04:11;;;;;;;1.25;0.93;;;;;;;;;;6244850;23;20176;-92
2022/06/28 03:06:38;;;;;;;1.25;0.90;;;;;;;;;;6244696;23;20243;-90
2022/06/28 03:09:06;;;;;;;2.10;1.00;;;;;;;;;;6244886;23;20199;-92
2022/06/28 03:11:33;;;;;;;0.80;0.80;;;;;;;;;;6245426;23;20194;-90
2022/06/28 03:14:00;;;;;;;1.52;1.00;;;;;;;;;;6245211;23;20695;-91
2022/06/28 03:16:30;;;;;;;0.80;0.80;;;;;;;;;;6244811;23;20164;-91
2022/06/28 03:18:57;;;;;;;0.88;0.85;;;;;;;;;;6244912;23;20223;-92
2022/06/28 03:21:26;;;;;;;1.88;1.10;;;;;;;;;;6244889;22;20188;-92
2022/06/28 03:23:53;;;;;;;0.90;0.90;;;;;;;;;;6245298;23;20173;-92
2022/06/28 03:26:23;;;;;;;1.00;0.90;;;;;;;;;;6244224;23;20188;-92
2022/06/28 03:28:51;;;;;;;1.30;0.90;;;;;;;;;;6244969;23;20192;-91
2022/06/28 03:31:18;;;;;;;0.80;0.80;;;;;;;;;;6244636;23;20172;-92
2022/06/28 03:33:47;;;;;;;0.80;0.80;;;;;;;;;;6244186;23;20191;-91
2022/06/28 03:36:14;;;;;;;0.80;0.80;;;;;;;;;;6244922;23;20172;-91
2022/06/28 03:38:44;;;;;;;1.98;1.27;;;;;;;;;;6244385;23;20231;-90
2022/06/28 03:41:22;;;;;;;1.27;0.88;;;;;;;;;;6244951;23;20173;-92
2022/06/28 03:43:49;;;;;;;0.95;0.90;;;;;;;;;;6244755;23;20230;-91
2022/06/28 03:46:18;;;;;;;1.38;1.00;;;;;;;;;;6244511;23;20263;-90
2022/06/28 03:48:46;;;;;;;0.70;0.70;;;;;;;;;;6244329;23;20169;-92
2022/06/28 03:51:13;;;;;;;1.05;1.00;;;;;;;;;;6244157;23;20223;-91
2022/06/28 03:53:40;;;;;;;1.40;0.90;;;;;;;;;;6244644;23;20179;-91
2022/06/28 03:56:12;;;;;;;1.10;1.00;;;;;;;;;;6243748;23;20164;-91
2022/06/28 03:58:47;;;;;;;1.13;1.10;;;;;;;;;;6244282;23;20223;-91
2022/06/28 04:01:14;;;;;;;1.35;0.90;;;;;;;;;;6245017;23;20218;-89
2022/06/28 04:03:42;;;;;;;1.10;1.00;;;;;;;;;;6244891;23;20183;-91
2022/06/28 04:06:09;;;;;;;0.90;0.90;;;;;;;;;;6244115;23;20195;-91
2022/06/28 04:08:36;;;;;;;1.27;1.17;;;;;;;;;;6243905;23;20224;-90
2022/06/28 04:11:18;;;;;;;1.02;1.00;;;;;;;;;;6244446;23;20176;-91
2022/06/28 04:13:51;;;;;;;11.20;2.50;;;;;;;;;;6257385;23;20191;-93
2022/06/28 04:16:19;;;;;;;9.23;2.28;;;;;;;;;;6246740;23;20161;-87
2022/06/28 04:18:47;;;;;;;18.17;4.55;;;;;;;;;;6244227;23;20172;-90
2022/06/28 04:21:15;;;;;;;45.00;11.20;;;;;;;;;;6244998;22;20207;-88
2022/06/28 04:23:42;;;;;;;65.15;17.35;;;;;;;;;;6244530;23;20199;-91
2022/06/28 04:26:18;;;;;;;62.13;17.98;;;;;;;;;;6244652;23;20275;-92
2022/06/28 04:28:48;;;;;;;73.75;19.25;;;;;;;;;;6247089;23;20168;-89
2022/06/28 04:34:26;;;;;;;29.63;7.60;;;;;;;;;;6260920;22;20211;-90
2022/06/28 04:36:56;;;;;;;18.50;6.82;;;;;;;;;;6244620;23;20165;-90
2022/06/28 05:06:14;;;;;;;37.47;16.33;;;;;;;;;;6218577;23;20208;-92
2022/06/28 05:08:58;;;;;;;41.78;15.55;;;;;;;;;;6215792;23;20245;-91
2022/06/28 05:26:31;;;;;;;20.08;6.97;;;;;;;;;;6239023;23;20215;-90
2022/06/28 05:29:07;;;;;;;15.02;6.22;;;;;;;;;;6246319;23;20192;-90
2022/06/28 05:31:35;;;;;;;13.80;6.78;;;;;;;;;;6246198;22;20179;-90
2022/06/28 05:34:08;;;;;;;11.23;6.00;;;;;;;;;;6245238;22;20180;-91
2022/06/28 05:36:45;;;;;;;12.05;6.03;;;;;;;;;;6276281;22;20168;-94
2022/06/28 05:39:12;;;;;;;8.60;4.93;;;;;;;;;;6281775;22;20195;-93
2022/06/28 05:41:44;;;;;;;10.35;4.68;;;;;;;;;;6276532;22;20172;-91
2022/06/28 05:44:15;;;;;;;8.75;5.03;;;;;;;;;;6278268;22;20160;-91
2022/06/28 05:46:54;;;;;;;7.68;4.72;;;;;;;;;;6276081;22;20198;-91
2022/06/28 05:49:21;;;;;;;9.68;4.65;;;;;;;;;;6276181;22;20250;-92
2022/06/28 05:51:48;;;;;;;8.07;4.32;;;;;;;;;;6275746;22;20237;-92
2022/06/28 05:54:16;;;;;;;5.07;3.70;;;;;;;;;;6275950;22;20172;-92
2022/06/28 05:56:43;;;;;;;6.10;4.13;;;;;;;;;;6276312;22;20187;-91
2022/06/28 05:59:11;;;;;;;5.43;3.60;;;;;;;;;;6275940;22;20188;-92
2022/06/28 06:01:40;;;;;;;6.18;3.88;;;;;;;;;;6276096;22;20176;-92
2022/06/28 06:04:07;;;;;;;4.95;3.53;;;;;;;;;;6276043;22;20172;-91
2022/06/28 06:06:34;;;;;;;4.38;2.97;;;;;;;;;;6275608;22;20194;-92
2022/06/28 06:09:02;;;;;;;3.83;3.22;;;;;;;;;;6276328;22;20242;-92
2022/06/28 06:11:29;;;;;;;4.20;2.90;;;;;;;;;;6277024;22;20175;-90
2022/06/28 06:13:56;;;;;;;3.63;3.20;;;;;;;;;;6276398;22;20172;-91
2022/06/28 06:16:24;;;;;;;4.70;3.22;;;;;;;;;;6275870;22;20171;-90
2022/06/28 06:18:52;;;;;;;3.35;3.03;;;;;;;;;;6276474;22;20188;-93
2022/06/28 06:21:35;;;;;;;3.20;2.90;;;;;;;;;;6277671;22;20238;-92
2022/06/28 06:24:16;;;;;;;3.50;2.90;;;;;;;;;;6279734;22;20171;-93
2022/06/28 06:26:44;;;;;;;4.03;3.08;;;;;;;;;;6278744;22;20245;-91
2022/06/28 06:29:12;;;;;;;4.10;3.00;;;;;;;;;;6277220;22;20192;-93
2022/06/28 06:31:39;;;;;;;3.28;2.97;;;;;;;;;;6276422;22;20183;-93
2022/06/28 06:34:08;;;;;;;2.80;2.47;;;;;;;;;;6276336;22;20218;-93
2022/06/28 06:36:35;;;;;;;2.92;2.63;;;;;;;;;;6276106;22;20211;-93
2022/06/28 06:39:02;;;;;;;3.38;2.92;;;;;;;;;;6276608;22;20246;-93
2022/06/28 06:41:30;;;;;;;3.28;3.00;;;;;;;;;;6276305;22;20172;-92
2022/06/28 06:44:00;;;;;;;2.90;2.70;;;;;;;;;;6276089;22;20225;-93
2022/06/28 06:46:39;;;;;;;2.95;2.72;;;;;;;;;;6278081;22;20184;-93
2022/06/28 06:49:14;;;;;;;3.35;2.72;;;;;;;;;;6277136;22;20196;-92
2022/06/28 06:51:44;;;;;;;3.05;2.60;;;;;;;;;;6276932;22;20194;-92
2022/06/28 06:54:13;;;;;;;2.50;2.30;;;;;;;;;;6276912;22;20194;-93
2022/06/28 06:56:43;;;;;;;2.80;2.60;;;;;;;;;;6277155;22;20164;-92
2022/06/28 06:59:16;;;;;;;2.83;2.40;;;;;;;;;;6277474;22;20192;-92
2022/06/28 07:01:47;;;;;;;2.95;2.70;;;;;;;;;;6277556;22;20176;-92
2022/06/28 07:04:16;;;;;;;3.63;2.60;;;;;;;;;;6276303;22;20195;-93
2022/06/28 07:06:45;;;;;;;2.88;2.67;;;;;;;;;;6275432;22;20274;-92
2022/06/28 07:09:17;;;;;;;2.88;2.40;;;;;;;;;;6276324;22;20212;-90
2022/06/28 07:11:48;;;;;;;3.47;2.40;;;;;;;;;;6276243;22;20174;-93
2022/06/28 07:14:18;;;;;;;2.60;2.40;;;;;;;;;;6276556;22;20169;-93
2022/06/28 07:16:47;;;;;;;2.80;2.60;;;;;;;;;;6276537;22;20156;-93
2022/06/28 07:19:18;;;;;;;3.25;2.70;;;;;;;;;;6276040;22;20188;-90
2022/06/28 07:21:50;;;;;;;3.25;2.70;;;;;;;;;;6277708;22;20172;-92
2022/06/28 07:24:26;;;;;;;2.70;2.50;;;;;;;;;;6277619;22;20164;-92
2022/06/28 07:27:00;;;;;;;2.85;2.40;;;;;;;;;;6276202;22;20194;-93
2022/06/28 07:29:36;;;;;;;2.50;2.30;;;;;;;;;;6276991;22;20199;-93
2022/06/28 07:32:53;;;;;;;3.05;2.40;;;;;;;;;;6279173;22;20163;-92
2022/06/28 07:35:52;;;;;;;6.10;3.28;;;;;;;;;;6278728;22;20171;-92
2022/06/28 07:38:25;;;;;;;3.00;2.80;;;;;;;;;;6277751;22;20168;-92
2022/06/28 07:41:14;;;;;;;3.05;2.45;;;;;;;;;;6275675;22;20188;-92
2022/06/28 07:43:42;;;;;;;3.00;2.80;;;;;;;;;;6277550;22;20214;-93
2022/06/28 07:46:11;;;;;;;3.10;2.80;;;;;;;;;;6280020;22;20266;-92
2022/06/28 07:48:41;;;;;;;2.65;2.45;;;;;;;;;;6275478;22;20822;-92
2022/06/28 07:54:04;;;;;;;2.90;2.70;;;;;;;;;;6281091;22;20243;-94
2022/06/28 07:56:31;;;;;;;2.90;2.70;;;;;;;;;;6278234;22;20166;-94
2022/06/28 07:59:03;;;;;;;2.90;2.70;;;;;;;;;;6280044;22;20192;-93
2022/06/28 08:04:18;;;;;;;2.80;2.60;;;;;;;;;;6277475;22;20172;-94
2022/06/28 08:06:56;;;;;;;2.60;2.35;;;;;;;;;;6279887;22;20194;-93
2022/06/28 08:09:25;;;;;;;2.90;2.70;;;;;;;;;;6278830;22;20245;-93
2022/06/28 08:12:04;;;;;;;2.80;2.55;;;;;;;;;;6277892;22;20172;-93
2022/06/28 08:14:40;;;;;;;3.20;3.00;;;;;;;;;;6280629;22;20179;-94
2022/06/28 08:17:09;;;;;;;2.80;2.60;;;;;;;;;;6279464;22;20160;-93
2022/06/28 08:19:38;;;;;;;2.63;2.40;;;;;;;;;;6273540;22;20196;-91
2022/06/28 08:22:17;;;;;;;3.00;2.67;;;;;;;;;;6252579;23;20248;-93
2022/06/28 08:28:01;;;;;;;4.43;3.63;;;;;;;;;;6243294;23;20215;-90
2022/06/28 08:31:03;;;;;;;4.00;3.70;;;;;;;;;;6247953;23;20250;-90
2022/06/28 08:33:41;;;;;;;3.65;3.20;;;;;;;;;;6249799;23;20192;-91
2022/06/28 08:39:00;;;;;;;3.05;2.75;;;;;;;;;;6154559;23;20179;-91
2022/06/28 08:44:53;;;;;;;2.58;2.38;;;;;;;;;;6151590;23;20206;-90
2022/06/28 08:47:38;;;;;;;2.47;2.28;;;;;;;;;;6153324;23;20577;-90
2022/06/28 08:50:12;;;;;;;2.70;2.50;;;;;;;;;;6180912;22;20499;-90
2022/06/28 08:52:50;;;;;;;2.20;2.10;;;;;;;;;;6277287;22;20172;-90
2022/06/28 08:55:32;;;;;;;2.20;2.08;;;;;;;;;;6277612;22;20171;-90
2022/06/28 09:00:59;;;;;;;2.20;2.10;;;;;;;;;;6271196;22;20188;-90
2022/06/28 09:03:37;;;;;;;2.30;2.20;;;;;;;;;;6277635;22;20164;-90
2022/06/28 09:09:37;;;;;;;2.55;2.40;;;;;;;;;;6102317;23;20176;-91
2022/06/28 09:12:28;;;;;;;2.10;2.00;;;;;;;;;;6123438;23;20178;-90
2022/06/28 09:15:04;;;;;;;2.70;2.22;;;;;;;;;;6269269;22;20172;-90
2022/06/28 09:20:43;;;;;;;2.38;2.10;;;;;;;;;;6249642;22;20188;-90
2022/06/28 09:23:22;;;;;;;2.33;2.22;;;;;;;;;;6276734;22;20179;-91
2022/06/28 09:25:54;;;;;;;2.17;2.08;;;;;;;;;;6276890;22;20186;-90
2022/06/28 09:31:32;;;;;;;2.10;2.00;;;;;;;;;;6274986;22;20198;-90
2022/06/28 10:01:53;;;;;;;1.98;1.88;;;;;;;;;;5953094;24;20239;-89
2022/06/28 10:04:22;;;;;;;4.00;2.00;;;;;;;;;;6031649;23;20261;-89
2022/06/28 10:10:22;;;;;;;5.20;2.30;;;;;;;;;;6088578;23;20212;-89
2022/06/28 10:16:08;;;;;;;5.47;2.00;;;;;;;;;;6246089;23;20152;-88
2022/06/28 10:51:23;;;;;;;3.20;2.03;;;;;;;;;;6239149;22;20207;-89
2022/06/28 11:18:30;;;;;;;1.83;1.70;;;;;;;;;;6123131;23;20250;-90
2022/06/28 11:21:44;;;;;;;1.63;1.52;;;;;;;;;;6227665;22;20203;-91
2022/06/28 11:36:47;;;;;;;1.40;1.23;;;;;;;;;;6003097;23;20246;-89
2022/06/28 11:42:30;;;;;;;1.50;1.40;;;;;;;;;;5923426;24;20207;-89
2022/06/28 12:24:00;;;;;;;1.55;1.23;;;;;;;;;;6065435;23;20196;-86
2022/06/28 12:26:43;;;;;;;1.88;1.38;;;;;;;;;;6168930;23;20172;-85
2022/06/28 12:29:18;;;;;;;2.53;1.40;;;;;;;;;;6213273;23;20172;-86
2022/06/28 12:34:57;;;;;;;1.70;1.40;;;;;;;;;;6214389;23;20168;-86
2022/06/28 12:37:25;;;;;;;2.78;1.13;;;;;;;;;;6213881;23;20495;-85
2022/06/28 12:40:03;;;;;;;1.10;1.10;;;;;;;;;;6213777;23;20193;-85
2022/06/28 12:42:45;;;;;;;1.80;1.23;;;;;;;;;;6214164;23;20161;-85
2022/06/28 12:47:57;;;;;;;1.25;1.02;;;;;;;;;;6212988;23;20216;-85
2022/06/28 12:50:38;;;;;;;2.08;1.38;;;;;;;;;;6213516;23;20249;-85
2022/06/28 12:53:13;;;;;;;1.40;1.30;;;;;;;;;;6214218;23;20261;-86
2022/06/28 12:56:15;;;;;;;1.38;1.25;;;;;;;;;;6214014;23;20161;-84
2022/06/28 13:07:47;;;;;;;1.40;1.15;;;;;;;;;;6016925;23;20265;-86
2022/06/28 13:10:34;;;;;;;2.80;1.20;;;;;;;;;;6123502;23;20196;-85
2022/06/28 13:19:14;;;;;;;1.40;1.30;;;;;;;;;;6035962;23;20169;-88
2022/06/28 13:36:30;;;;;;;2.03;1.42;;;;;;;;;;6119405;23;20175;-88
2022/06/28 14:24:49;;;;;;;1.40;1.30;;;;;;;;;;6100433;23;20313;-88
2022/06/28 14:27:27;;;;;;;2.17;1.20;;;;;;;;;;6152400;23;20174;-88
2022/06/28 14:30:14;;;;;;;2.30;1.25;;;;;;;;;;6153117;23;20221;-85
2022/06/28 14:32:47;;;;;;;1.40;1.30;;;;;;;;;;6157406;23;20174;-86
2022/06/28 14:35:42;;;;;;;3.28;1.27;;;;;;;;;;6156683;23;20258;-86
2022/06/28 14:38:12;;;;;;;1.98;1.30;;;;;;;;;;6242167;22;20287;-90
2022/06/28 14:40:40;;;;;;;2.80;1.40;;;;;;;;;;6275487;22;20183;-88
2022/06/28 14:43:08;;;;;;;1.95;1.20;;;;;;;;;;6275640;22;20183;-90
2022/06/28 14:45:42;;;;;;;2.05;1.45;;;;;;;;;;6276048;22;20226;-90
2022/06/28 15:01:15;;;;;;;2.58;1.30;;;;;;;;;;6153601;23;20254;-91
2022/06/28 16:51:38;;;;;;;1.92;1.70;;;;;;;;;;6096061;23;20183;-88
2022/06/28 20:39:52;;;;;;;3.38;2.80;;;;;;;;;;6262616;22;20207;-92
2022/06/28 20:45:14;;;;;;;4.03;2.53;;;;;;;;;;6275427;22;20164;-92
2022/06/28 20:47:45;;;;;;;3.40;2.70;;;;;;;;;;6275845;22;20168;-92
2022/06/28 20:53:49;;;;;;;3.17;2.90;;;;;;;;;;6218748;23;20222;-92
2022/06/28 20:56:24;;;;;;;3.72;2.50;;;;;;;;;;6244748;23;20511;-92
2022/06/28 20:58:51;;;;;;;3.10;2.80;;;;;;;;;;6245249;23;20191;-93
2022/06/28 21:01:22;;;;;;;3.58;2.88;;;;;;;;;;6244738;23;20169;-92
2022/06/28 21:03:49;;;;;;;3.30;2.67;;;;;;;;;;6245251;23;20168;-91
2022/06/28 21:06:22;;;;;;;3.90;2.88;;;;;;;;;;6244380;23;20169;-92
2022/06/28 21:15:04;;;;;;;3.03;2.72;;;;;;;;;;6244147;23;20169;-93
2022/06/28 21:20:29;;;;;;;2.83;2.53;;;;;;;;;;6271514;22;20207;-92
2022/06/28 21:23:21;;;;;;;3.03;2.70;;;;;;;;;;6274946;22;20198;-93
2022/06/28 21:29:13;;;;;;;3.03;2.80;;;;;;;;;;6183372;23;20200;-92
2022/06/28 21:37:23;;;;;;;2.85;2.60;;;;;;;;;;6242163;23;20172;-91
2022/06/28 21:39:59;;;;;;;3.13;2.78;;;;;;;;;;6246603;23;20184;-91
2022/06/28 21:45:25;;;;;;;2.92;2.72;;;;;;;;;;6247060;23;20255;-93
2022/06/28 21:48:02;;;;;;;2.40;2.30;;;;;;;;;;6247090;23;20207;-93
2022/06/28 21:53:33;;;;;;;2.50;2.40;;;;;;;;;;6250006;23;20168;-92
2022/06/28 21:56:13;;;;;;;2.75;2.45;;;;;;;;;;6248946;23;20168;-93
2022/06/28 21:58:55;;;;;;;2.60;2.40;;;;;;;;;;6258146;22;20203;-93
2022/06/28 22:04:09;;;;;;;2.90;2.70;;;;;;;;;;6277189;22;20171;-91
2022/06/28 22:06:41;;;;;;;3.58;2.75;;;;;;;;;;6276787;22;20222;-92
2022/06/28 22:09:29;;;;;;;2.90;2.70;;;;;;;;;;6276368;22;20249;-92
2022/06/28 22:11:56;;;;;;;2.97;2.78;;;;;;;;;;6276409;22;20172;-92
2022/06/28 22:14:30;;;;;;;3.00;2.70;;;;;;;;;;6276933;22;20169;-92
2022/06/28 22:16:57;;;;;;;2.85;2.65;;;;;;;;;;6279460;22;20210;-91
2022/06/28 22:19:24;;;;;;;3.15;2.88;;;;;;;;;;6276841;22;20184;-92
2022/06/28 22:21:58;;;;;;;2.88;2.67;;;;;;;;;;6277686;22;20168;-92
2022/06/28 22:24:25;;;;;;;2.88;2.67;;;;;;;;;;6276985;22;20168;-92
2022/06/28 22:26:53;;;;;;;2.88;2.67;;;;;;;;;;6276934;22;20168;-92
2022/06/28 22:29:20;;;;;;;2.90;2.70;;;;;;;;;;6277603;22;20192;-91
2022/06/28 22:31:49;;;;;;;3.22;2.67;;;;;;;;;;6277093;22;20172;-92
2022/06/28 22:34:17;;;;;;;3.00;2.80;;;;;;;;;;6277113;22;20176;-92
2022/06/28 22:36:47;;;;;;;3.10;2.90;;;;;;;;;;6276553;22;20182;-92
2022/06/28 22:39:16;;;;;;;2.88;2.67;;;;;;;;;;6276966;22;20242;-91
2022/06/28 22:41:43;;;;;;;3.10;2.80;;;;;;;;;;6276706;22;20172;-92
2022/06/28 22:44:10;;;;;;;2.55;2.42;;;;;;;;;;6277127;22;20179;-93
2022/06/28 22:46:38;;;;;;;3.28;2.70;;;;;;;;;;6277117;22;20179;-92
2022/06/28 22:49:05;;;;;;;2.78;2.58;;;;;;;;;;6277659;22;20196;-92
2022/06/28 22:51:34;;;;;;;3.42;2.60;;;;;;;;;;6281589;22;20176;-92
2022/06/28 22:54:01;;;;;;;2.97;2.70;;;;;;;;;;6301396;22;20202;-92
2022/06/28 22:56:36;;;;;;;2.92;2.63;;;;;;;;;;6299861;22;20172;-92
2022/06/28 22:59:03;;;;;;;3.05;2.80;;;;;;;;;;6299836;22;20221;-92
2022/06/28 23:01:39;;;;;;;3.03;2.83;;;;;;;;;;6301908;22;20164;-92
2022/06/28 23:04:12;;;;;;;2.95;2.70;;;;;;;;;;6303613;22;20155;-92
2022/06/28 23:06:45;;;;;;;2.80;2.60;;;;;;;;;;6303885;22;20168;-92
2022/06/28 23:09:13;;;;;;;3.08;2.88;;;;;;;;;;6303426;22;20243;-92
2022/06/28 23:11:44;;;;;;;2.75;2.47;;;;;;;;;;6288116;22;20256;-92
2022/06/28 23:14:12;;;;;;;3.00;2.65;;;;;;;;;;6281442;22;20168;-91
2022/06/28 23:16:39;;;;;;;2.92;2.72;;;;;;;;;;6279566;22;20175;-92
2022/06/28 23:19:06;;;;;;;3.00;2.80;;;;;;;;;;6277615;22;20187;-92
2022/06/28 23:21:34;;;;;;;2.85;2.65;;;;;;;;;;6277103;22;20172;-92
2022/06/28 23:24:01;;;;;;;2.80;2.60;;;;;;;;;;6277258;22;20175;-91
2022/06/28 23:26:28;;;;;;;2.70;2.50;;;;;;;;;;6276238;22;20194;-92
2022/06/28 23:28:57;;;;;;;3.00;2.80;;;;;;;;;;6275758;22;20648;-92
2022/06/28 23:31:24;;;;;;;3.80;2.90;;;;;;;;;;6276296;22;20172;-91
2022/06/28 23:33:52;;;;;;;2.67;2.53;;;;;;;;;;6275550;22;20172;-92
2022/06/28 23:36:19;;;;;;;2.63;2.42;;;;;;;;;;6276100;22;20184;-92
2022/06/28 23:38:49;;;;;;;3.20;2.90;;;;;;;;;;6276162;22;20187;-92
2022/06/28 23:41:16;;;;;;;2.83;2.63;;;;;;;;;;6276959;22;20246;-92
2022/06/28 23:43:44;;;;;;;2.97;2.78;;;;;;;;;;6277347;22;20172;-92
2022/06/28 23:46:13;;;;;;;2.60;2.40;;;;;;;;;;6283391;22;20172;-92
2022/06/28 23:48:41;;;;;;;2.65;2.45;;;;;;;;;;6280048;22;20199;-92
2022/06/28 23:51:11;;;;;;;2.83;2.63;;;;;;;;;;6277052;22;20198;-92
2022/06/28 23:53:38;;;;;;;2.72;2.53;;;;;;;;;;6277061;22;20228;-92
2022/06/28 23:56:05;;;;;;;2.83;2.63;;;;;;;;;;6276281;22;20237;-92
2022/06/28 23:58:33;;;;;;;2.78;2.63;;;;;;;;;;6276403;22;20230;-93
